Time;durP1;ratioP1;P1;durP2;ratioP2;P2;SDS_P1;SDS_P2;PMS_P1;PMS_P2;Temp;Humidity;BMP_temperature;BMP_pressure;BME280_temperature;BME280_humidity;BME280_pressure;Samples;Min_cycle;Max_cycle;Signal;HPM_P1;HPM_P2
2023/05/03 00:02:09;;;;;;;12.95;3.90;;;;;;;5.20;87.56;102709.97;4845570;29;20025;-77
2023/05/03 00:04:34;;;;;;;14.88;3.78;;;;;;;5.20;87.35;102707.31;4842019;29;20036;-77
2023/05/03 00:07:00;;;;;;;15.18;3.95;;;;;;;5.19;87.88;102710.88;4846563;29;20401;-77
2023/05/03 00:09:25;;;;;;;13.07;3.58;;;;;;;5.16;88.28;102705.59;4849009;29;20143;-77
2023/05/03 00:11:52;;;;;;;13.02;3.60;;;;;;;5.16;88.64;102708.28;4842881;29;20040;-77
2023/05/03 00:14:17;;;;;;;11.02;3.72;;;;;;;5.14;87.71;102707.44;4851299;29;20025;-77
2023/05/03 00:16:42;;;;;;;12.45;3.50;;;;;;;5.14;87.61;102709.22;4836873;29;20098;-77
2023/05/03 00:19:08;;;;;;;13.32;3.75;;;;;;;5.11;87.95;102715.50;4844509;29;20537;-77
2023/05/03 00:21:33;;;;;;;12.75;3.50;;;;;;;5.10;87.65;102713.75;4838002;29;20038;-77
2023/05/03 00:23:58;;;;;;;13.18;3.80;;;;;;;5.08;88.21;102712.88;4852439;29;20527;-77
2023/05/03 00:26:25;;;;;;;14.38;4.32;;;;;;;5.04;88.53;102708.53;4834911;29;20064;-77
2023/05/03 00:28:50;;;;;;;12.57;3.97;;;;;;;5.03;88.75;102717.44;4850195;29;20040;-77
2023/05/03 00:31:15;;;;;;;12.23;3.95;;;;;;;5.06;88.55;102706.72;4845171;29;20033;-77
2023/05/03 00:33:41;;;;;;;15.40;3.88;;;;;;;4.99;88.87;102713.06;4845519;29;20066;-77
2023/05/03 00:36:11;;;;;;;13.00;4.45;;;;;;;4.96;88.85;102714.00;4851828;29;20104;-77
2023/05/03 00:38:38;;;;;;;10.98;3.88;;;;;;;4.93;88.67;102711.41;4844557;29;20030;-77
2023/05/03 00:41:03;;;;;;;13.48;3.88;;;;;;;4.88;88.37;102713.28;4836981;29;20418;-76
2023/05/03 00:43:30;;;;;;;13.32;4.18;;;;;;;4.82;88.88;102716.06;4842309;29;20034;-77
2023/05/03 00:45:57;;;;;;;12.40;4.18;;;;;;;4.77;89.15;102718.81;4853000;29;20418;-77
2023/05/03 00:48:22;;;;;;;10.13;3.33;;;;;;;4.75;88.31;102717.09;4853023;29;20026;-77
2023/05/03 00:50:48;;;;;;;10.75;3.60;;;;;;;4.76;89.50;102719.72;4848341;29;20090;-77
2023/05/03 00:53:13;;;;;;;12.80;3.50;;;;;;;4.72;89.59;102713.56;4849145;29;20037;-77
2023/05/03 00:55:40;;;;;;;15.65;4.68;;;;;;;4.75;89.55;102717.09;4847572;29;20041;-77
2023/05/03 00:58:05;;;;;;;15.30;3.80;;;;;;;4.75;89.46;102704.66;4853088;29;20065;-77
2023/05/03 01:00:31;;;;;;;12.45;3.85;;;;;;;4.72;88.67;102702.91;4851471;29;20532;-79
2023/05/03 01:02:56;;;;;;;15.93;4.50;;;;;;;4.72;88.80;102705.56;4845117;29;20030;-79
2023/05/03 01:05:22;;;;;;;11.68;4.03;;;;;;;4.71;89.21;102698.50;4854365;29;20062;-79
2023/05/03 01:08:10;;;;;;;14.43;4.00;;;;;;;4.73;89.11;102695.81;4854420;29;20066;-79
2023/05/03 01:11:07;;;;;;;12.10;3.88;;;;;;;4.73;89.26;102699.34;4843423;29;20040;-79
2023/05/03 01:13:35;;;;;;;12.15;3.78;;;;;;;4.63;89.63;102699.56;4835911;29;20158;-79
2023/05/03 01:16:11;;;;;;;13.68;3.95;;;;;;;4.64;88.75;102706.63;4837206;29;20060;-79
2023/05/03 01:18:40;;;;;;;13.85;4.47;;;;;;;4.64;89.14;102704.88;4841667;29;20474;-79
2023/05/03 01:21:08;;;;;;;11.02;3.63;;;;;;;4.60;88.85;102702.25;4830764;29;20030;-79
2023/05/03 01:23:41;;;;;;;18.17;4.50;;;;;;;4.59;89.32;102705.84;4846008;29;20038;-79
2023/05/03 01:26:24;;;;;;;14.38;3.63;;;;;;;4.61;88.86;102704.91;4838205;29;20513;-79
2023/05/03 01:28:50;;;;;;;12.25;3.88;;;;;;;4.58;88.94;102712.06;4831462;29;20069;-79
2023/05/03 01:31:32;;;;;;;12.77;4.15;;;;;;;4.53;88.99;102710.38;4843048;29;20574;-79
2023/05/03 01:34:17;;;;;;;16.50;4.43;;;;;;;4.53;88.51;102712.16;4842270;29;20094;-79
2023/05/03 01:36:43;;;;;;;15.63;4.28;;;;;;;4.47;89.38;102713.16;4850234;29;20410;-79
2023/05/03 01:39:15;;;;;;;12.05;3.40;;;;;;;4.47;89.61;102713.16;4833253;29;20090;-79
2023/05/03 01:41:42;;;;;;;15.63;4.15;;;;;;;4.45;89.60;102709.63;4836034;29;20045;-77
2023/05/03 01:44:08;;;;;;;14.07;4.18;;;;;;;4.48;89.83;102714.00;4823821;29;20099;-79
2023/05/03 01:46:33;;;;;;;13.98;3.90;;;;;;;4.43;90.00;102716.75;4833754;29;20521;-79
2023/05/03 01:48:59;;;;;;;17.50;4.80;;;;;;;4.41;89.15;102717.69;4837510;29;20037;-79
2023/05/03 01:51:24;;;;;;;15.38;4.03;;;;;;;4.37;88.67;102709.75;4841356;29;20482;-79
2023/05/03 01:53:50;;;;;;;15.48;4.32;;;;;;;4.37;89.56;102708.88;4850228;29;20048;-79
2023/05/03 01:56:15;;;;;;;14.77;3.95;;;;;;;4.35;89.80;102713.38;4848731;29;20108;-79
2023/05/03 01:58:40;;;;;;;11.98;3.95;;;;;;;4.32;89.41;102718.72;4848924;29;20048;-79
2023/05/03 02:01:06;;;;;;;13.13;4.70;;;;;;;4.30;89.76;102712.56;4847389;29;20133;-79
2023/05/03 02:03:32;;;;;;;13.85;3.75;;;;;;;4.28;90.07;102711.72;4844702;29;20041;-79
2023/05/03 02:05:57;;;;;;;15.63;4.65;;;;;;;4.26;89.71;102708.19;4843535;29;20475;-79
2023/05/03 02:08:23;;;;;;;15.48;5.13;;;;;;;4.22;89.48;102710.03;4846959;29;20041;-79
2023/05/03 02:10:48;;;;;;;13.73;4.15;;;;;;;4.20;90.34;102704.72;4835621;29;20049;-79
2023/05/03 02:13:13;;;;;;;15.50;4.40;;;;;;;4.21;89.98;102713.59;4851937;29;20097;-79
2023/05/03 02:15:39;;;;;;;17.10;4.40;;;;;;;4.17;90.21;102707.44;4851880;29;20049;-79
2023/05/03 02:18:04;;;;;;;13.70;3.88;;;;;;;4.17;90.01;102703.91;4853927;29;20535;-79
2023/05/03 02:20:34;;;;;;;17.00;4.88;;;;;;;4.16;90.00;102708.34;4844068;29;20038;-79
2023/05/03 02:22:59;;;;;;;15.40;4.38;;;;;;;4.16;89.66;102710.13;4853817;29;20393;-79
2023/05/03 02:25:25;;;;;;;16.45;4.80;;;;;;;4.12;90.10;102701.31;4851035;29;20161;-79
2023/05/03 02:27:50;;;;;;;13.02;4.03;;;;;;;4.12;90.15;102696.00;4853787;29;20030;-79
2023/05/03 02:30:15;;;;;;;13.35;4.30;;;;;;;4.12;90.92;102695.13;4849579;29;20517;-79
2023/05/03 02:32:41;;;;;;;16.00;4.70;;;;;;;4.12;91.17;102688.00;4857373;29;20033;-79
2023/05/03 02:35:06;;;;;;;18.65;4.65;;;;;;;4.10;90.28;102681.84;4850696;29;20045;-79
2023/05/03 02:37:32;;;;;;;14.88;5.30;;;;;;;4.10;91.09;102676.53;4848861;29;20058;-79
2023/05/03 02:39:57;;;;;;;16.20;4.80;;;;;;;4.10;91.44;102672.97;4847214;29;20554;-78
2023/05/03 02:42:22;;;;;;;14.18;4.65;;;;;;;4.11;90.76;102672.06;4834508;29;20061;-77
2023/05/03 02:44:48;;;;;;;14.45;4.28;;;;;;;4.14;90.87;102670.25;4848463;29;20030;-79
2023/05/03 02:47:13;;;;;;;20.00;4.90;;;;;;;4.15;91.40;102663.13;4847426;29;20513;-79
2023/05/03 02:49:38;;;;;;;13.93;4.80;;;;;;;4.15;92.02;102663.13;4830345;29;20034;-79
2023/05/03 02:52:03;;;;;;;13.18;4.15;;;;;;;4.15;91.92;102666.66;4845422;29;20100;-79
2023/05/03 02:54:29;;;;;;;14.70;4.90;;;;;;;4.18;91.97;102645.31;4843832;29;20066;-79
2023/05/03 02:56:54;;;;;;;14.85;4.85;;;;;;;4.20;91.98;102650.59;4851709;29;20052;-79
2023/05/03 02:59:19;;;;;;;16.95;5.50;;;;;;;4.22;91.83;102646.16;4841555;29;20056;-79
2023/05/03 03:01:45;;;;;;;18.20;4.55;;;;;;;4.23;92.02;102649.69;4852861;29;20064;-79
2023/05/03 03:04:11;;;;;;;18.38;5.75;;;;;;;4.26;92.44;102646.97;4849543;29;20110;-79
2023/05/03 03:06:36;;;;;;;16.23;4.50;;;;;;;4.32;91.74;102661.06;4847964;29;20630;-79
2023/05/03 03:09:02;;;;;;;16.13;5.43;;;;;;;4.30;91.35;102668.16;4825692;29;20507;-79
2023/05/03 03:11:28;;;;;;;15.68;4.63;;;;;;;4.30;91.45;102672.63;4852167;29;20039;-79
2023/05/03 03:13:53;;;;;;;16.80;4.43;;;;;;;4.23;90.72;102678.97;4851845;29;20494;-79
2023/05/03 03:16:18;;;;;;;15.00;4.50;;;;;;;4.22;90.90;102666.56;4848095;29;20049;-78
2023/05/03 03:18:44;;;;;;;16.63;5.25;;;;;;;4.19;91.38;102668.38;4854237;29;20037;-79
2023/05/03 03:21:09;;;;;;;16.48;5.35;;;;;;;4.19;90.39;102663.06;4848565;29;20053;-79
2023/05/03 03:23:34;;;;;;;16.35;4.90;;;;;;;4.16;91.10;102663.09;4849911;29;20479;-79
2023/05/03 03:26:00;;;;;;;16.27;5.15;;;;;;;4.18;91.02;102668.41;4851005;29;20026;-79
2023/05/03 03:28:25;;;;;;;12.75;4.35;;;;;;;4.15;90.76;102679.97;4849123;29;20108;-78
2023/05/03 03:30:51;;;;;;;18.50;5.35;;;;;;;4.13;91.19;102684.44;4852695;29;20098;-79
2023/05/03 03:33:16;;;;;;;12.98;4.60;;;;;;;4.14;91.40;102683.56;4851186;29;20406;-79
2023/05/03 03:35:41;;;;;;;15.05;4.75;;;;;;;4.11;90.27;102686.25;4844896;29;20038;-79
2023/05/03 03:38:06;;;;;;;17.83;5.25;;;;;;;4.10;91.22;102671.19;4842776;29;20057;-79
2023/05/03 03:40:32;;;;;;;16.92;5.82;;;;;;;4.08;91.23;102677.44;4846246;29;20041;-76
2023/05/03 03:42:57;;;;;;;17.75;5.80;;;;;;;4.05;91.41;102670.38;4835987;29;20048;-79
2023/05/03 03:45:22;;;;;;;14.77;4.53;;;;;;;4.03;90.69;102674.88;4848201;29;20082;-79
2023/05/03 03:47:48;;;;;;;15.77;5.00;;;;;;;4.01;91.21;102668.66;4838684;29;20034;-79
2023/05/03 03:50:13;;;;;;;15.20;5.38;;;;;;;4.02;91.65;102665.97;4844184;29;20505;-79
2023/05/03 03:52:38;;;;;;;16.67;5.50;;;;;;;3.98;91.57;102666.06;4847332;29;20029;-79
2023/05/03 03:55:05;;;;;;;17.45;4.93;;;;;;;4.00;91.90;102664.28;4849566;29;20030;-79
2023/05/03 03:57:30;;;;;;;20.20;5.45;;;;;;;4.02;91.76;102668.66;4847384;29;20033;-79
2023/05/03 03:59:59;;;;;;;14.82;4.65;;;;;;;3.97;91.26;102675.84;4838562;29;20383;-79
2023/05/03 04:02:25;;;;;;;18.60;5.30;;;;;;;4.00;91.31;102686.44;4837702;29;20048;-79
2023/05/03 04:04:50;;;;;;;21.70;5.70;;;;;;;4.00;91.41;102682.91;4848403;29;20033;-79
2023/05/03 04:07:16;;;;;;;18.02;5.72;;;;;;;3.99;91.30;102683.78;4848587;29;20030;-79
2023/05/03 04:09:41;;;;;;;16.83;5.55;;;;;;;3.95;91.49;102676.75;4840808;29;20037;-79
2023/05/03 04:12:06;;;;;;;17.92;5.78;;;;;;;3.96;92.12;102694.50;4850525;29;20029;-79
2023/05/03 04:14:32;;;;;;;17.10;5.28;;;;;;;3.95;91.63;102684.75;4848884;29;20063;-79
2023/05/03 04:16:57;;;;;;;16.90;5.70;;;;;;;3.93;91.78;102687.44;4847698;29;20590;-79
2023/05/03 04:19:24;;;;;;;18.20;5.82;;;;;;;3.92;91.94;102685.66;4850077;29;20033;-79
2023/05/03 04:21:49;;;;;;;18.85;6.18;;;;;;;3.88;91.82;102685.75;4849078;29;20105;-79
2023/05/03 04:24:15;;;;;;;17.33;5.68;;;;;;;3.87;91.72;102686.66;4849016;29;20459;-79
2023/05/03 04:26:41;;;;;;;18.15;5.63;;;;;;;3.89;92.37;102682.19;4854091;29;20041;-79
2023/05/03 04:29:06;;;;;;;16.70;6.07;;;;;;;3.90;92.33;102681.28;4848968;29;20021;-79
2023/05/03 04:31:32;;;;;;;18.67;5.88;;;;;;;3.89;92.16;102685.72;4849582;29;20406;-79
2023/05/03 04:33:57;;;;;;;19.00;6.30;;;;;;;3.91;91.99;102691.00;4847490;29;20060;-79
2023/05/03 04:36:25;;;;;;;17.00;5.32;;;;;;;3.90;92.47;102697.25;4835934;29;20128;-79
2023/05/03 04:38:51;;;;;;;19.00;5.95;;;;;;;3.93;92.76;102702.53;4841078;29;20536;-79
2023/05/03 04:41:16;;;;;;;16.08;5.22;;;;;;;3.95;91.93;102711.34;4841195;29;20125;-79
2023/05/03 04:43:42;;;;;;;16.67;6.60;;;;;;;3.96;92.92;102713.13;4843091;29;20435;-79
2023/05/03 04:46:08;;;;;;;26.45;6.65;;;;;;;3.96;92.41;102721.09;4848983;29;20033;-79
2023/05/03 04:48:35;;;;;;;16.58;5.82;;;;;;;4.00;92.35;102728.13;4841233;29;20404;-79
2023/05/03 04:51:00;;;;;;;20.58;6.10;;;;;;;4.01;93.09;102740.50;4850649;29;20263;-79
2023/05/03 04:53:26;;;;;;;18.02;6.60;;;;;;;4.01;93.21;102741.41;4851791;29;20459;-79
2023/05/03 04:55:51;;;;;;;17.98;5.90;;;;;;;4.02;92.33;102743.16;4842036;29;20041;-79
2023/05/03 04:58:16;;;;;;;17.23;6.40;;;;;;;4.06;92.83;102743.13;4849662;29;20040;-79
2023/05/03 05:00:42;;;;;;;18.45;6.70;;;;;;;4.10;93.32;102750.13;4839180;29;20041;-78
2023/05/03 05:03:08;;;;;;;19.17;6.25;;;;;;;4.15;92.83;102750.94;4844468;29;20037;-79
2023/05/03 05:05:33;;;;;;;18.73;6.28;;;;;;;4.14;92.73;102758.06;4848944;29;20116;-79
2023/05/03 05:07:58;;;;;;;21.10;5.88;;;;;;;4.16;92.52;102758.03;4851609;29;20112;-79
2023/05/03 05:10:24;;;;;;;21.52;7.05;;;;;;;4.20;93.16;102757.06;4846050;29;20065;-79
2023/05/03 05:12:50;;;;;;;18.38;6.50;;;;;;;4.24;93.18;102750.78;4844134;29;20029;-79
2023/05/03 05:15:15;;;;;;;17.67;6.05;;;;;;;4.28;94.09;102747.19;4844756;29;20057;-79
2023/05/03 05:17:40;;;;;;;19.95;6.38;;;;;;;4.35;92.68;102747.97;4848593;29;20037;-79
2023/05/03 05:20:11;;;;;;;19.65;6.18;;;;;;;4.38;94.60;102758.56;4841953;29;20467;-79
2023/05/03 05:22:36;;;;;;;22.08;6.93;;;;;;;4.49;93.98;102753.91;4848433;29;20037;-79
2023/05/03 05:25:02;;;;;;;18.85;6.95;;;;;;;4.55;91.38;102745.84;4843257;29;20383;-79
2023/05/03 05:27:27;;;;;;;18.75;6.05;;;;;;;4.63;91.44;102744.84;4837480;29;20044;-79
2023/05/03 05:29:53;;;;;;;20.58;5.63;;;;;;;4.72;91.99;102744.66;4847317;29;20037;-79
2023/05/03 05:32:18;;;;;;;17.90;5.85;;;;;;;4.78;90.76;102739.22;4845571;29;20045;-80
2023/05/03 05:34:47;;;;;;;20.98;7.15;;;;;;;4.87;91.48;102744.34;4854608;29;20128;-79
2023/05/03 05:37:13;;;;;;;20.23;6.93;;;;;;;4.95;88.29;102740.69;4851797;29;20026;-79
2023/05/03 05:39:38;;;;;;;17.92;6.07;;;;;;;5.03;87.98;102750.28;4854210;29;20488;-79
2023/05/03 05:42:04;;;;;;;17.88;6.07;;;;;;;5.10;89.50;102740.38;4835110;29;20034;-79
2023/05/03 05:44:29;;;;;;;18.45;6.28;;;;;;;5.17;89.09;102742.03;4849684;29;20121;-79
2023/05/03 05:46:55;;;;;;;18.85;6.28;;;;;;;5.23;88.31;102739.22;4851923;29;20037;-79
2023/05/03 05:49:20;;;;;;;19.25;6.70;;;;;;;5.30;89.59;102741.75;4846740;29;20038;-80
2023/05/03 05:51:45;;;;;;;18.85;5.57;;;;;;;5.35;87.92;102746.09;4839603;29;20071;-79
2023/05/03 05:54:10;;;;;;;19.15;5.97;;;;;;;5.42;88.98;102746.84;4852647;29;20034;-79
2023/05/03 05:56:36;;;;;;;16.08;5.88;;;;;;;5.49;88.78;102752.91;4854121;29;20112;-79
2023/05/03 05:59:03;;;;;;;18.15;5.85;;;;;;;5.55;87.63;102753.69;4843038;29;20042;-79
2023/05/03 06:01:30;;;;;;;23.17;6.10;;;;;;;5.62;85.66;102759.75;4835358;29;20075;-79
2023/05/03 06:03:56;;;;;;;15.48;5.45;;;;;;;5.70;86.96;102754.25;4833523;29;20026;-80
2023/05/03 06:06:21;;;;;;;19.15;6.38;;;;;;;5.78;87.75;102760.28;4835112;29;20038;-78
2023/05/03 06:08:48;;;;;;;19.25;6.47;;;;;;;5.84;86.48;102753.94;4837507;29;20040;-79
2023/05/03 06:11:14;;;;;;;17.00;6.18;;;;;;;5.90;85.20;102748.44;4836207;29;20026;-76
2023/05/03 06:13:39;;;;;;;16.23;5.55;;;;;;;5.95;84.69;102747.44;4836330;29;20387;-79
2023/05/03 06:16:05;;;;;;;15.85;5.53;;;;;;;6.04;85.78;102750.84;4834272;29;20049;-76
2023/05/03 06:18:30;;;;;;;19.35;6.70;;;;;;;6.08;83.68;102742.72;4837082;29;20403;-77
2023/05/03 06:20:56;;;;;;;16.60;5.65;;;;;;;6.14;84.12;102741.69;4837406;29;20097;-77
2023/05/03 06:23:21;;;;;;;19.15;6.32;;;;;;;6.20;85.09;102738.88;4835011;29;20729;-77
2023/05/03 06:25:46;;;;;;;16.85;6.20;;;;;;;6.28;86.84;102739.56;4834853;29;20090;-77
2023/05/03 06:28:12;;;;;;;18.60;5.97;;;;;;;6.35;84.02;102742.09;4835062;29;20532;-77
2023/05/03 06:30:37;;;;;;;16.80;6.07;;;;;;;6.41;83.86;102744.59;4839522;29;20038;-77
2023/05/03 06:33:03;;;;;;;17.30;5.78;;;;;;;6.48;83.26;102746.19;4836227;29;20037;-77
2023/05/03 06:35:28;;;;;;;18.90;5.82;;;;;;;6.55;84.32;102742.44;4837065;29;20393;-74
2023/05/03 06:37:53;;;;;;;17.85;5.55;;;;;;;6.60;83.42;102739.66;4836306;29;20430;-76
2023/05/03 06:40:19;;;;;;;18.15;5.95;;;;;;;6.67;82.67;102735.91;4834922;29;20037;-76
2023/05/03 06:42:44;;;;;;;18.17;6.38;;;;;;;6.74;82.74;102744.66;4831136;29;20026;-75
2023/05/03 06:45:10;;;;;;;16.38;5.97;;;;;;;6.80;82.22;102731.13;4834535;29;20049;-77
2023/05/03 06:47:35;;;;;;;19.77;5.80;;;;;;;6.88;83.25;102729.13;4836411;29;20071;-76
2023/05/03 06:50:01;;;;;;;19.90;5.97;;;;;;;6.97;82.92;102728.00;4835411;29;20068;-77
2023/05/03 06:52:26;;;;;;;18.45;6.45;;;;;;;7.04;82.07;102734.03;4836392;29;20117;-77
2023/05/03 06:54:52;;;;;;;18.67;6.07;;;;;;;7.11;81.51;102722.25;4837151;29;20030;-76
2023/05/03 06:57:17;;;;;;;15.43;5.13;;;;;;;7.18;80.41;102718.47;4855327;29;20025;-76
2023/05/03 06:59:42;;;;;;;18.40;6.18;;;;;;;7.25;81.60;102725.41;4845086;29;20042;-77
2023/05/03 07:02:08;;;;;;;18.98;5.95;;;;;;;7.34;81.18;102726.94;4850926;29;20038;-77
2023/05/03 07:04:33;;;;;;;18.45;5.40;;;;;;;7.39;79.09;102718.75;4847434;29;20037;-76
2023/05/03 07:06:58;;;;;;;18.75;6.10;;;;;;;7.45;79.34;102724.81;4849032;29;20045;-76
2023/05/03 07:09:24;;;;;;;19.98;6.47;;;;;;;7.52;78.18;102717.47;4851628;29;20474;-76
2023/05/03 07:11:50;;;;;;;18.23;5.65;;;;;;;7.60;79.59;102727.94;4852097;29;20072;-76
2023/05/03 07:14:16;;;;;;;19.10;5.60;;;;;;;7.67;78.63;102730.38;4849779;29;20078;-76
2023/05/03 07:16:41;;;;;;;19.27;5.90;;;;;;;7.75;79.00;102726.59;4844826;29;20431;-76
2023/05/03 07:19:07;;;;;;;17.75;5.82;;;;;;;7.80;78.80;102717.47;4851647;29;20326;-76
2023/05/03 07:21:33;;;;;;;19.80;5.97;;;;;;;7.84;77.45;102720.94;4846054;29;20032;-76
2023/05/03 07:23:59;;;;;;;19.25;6.53;;;;;;;7.90;76.89;102728.78;4848196;29;20049;-76
2023/05/03 07:26:25;;;;;;;20.73;6.03;;;;;;;7.98;79.01;102731.19;4850300;29;20033;-76
2023/05/03 07:28:51;;;;;;;18.40;6.53;;;;;;;8.04;78.21;102733.72;4848851;29;20573;-76
2023/05/03 07:31:16;;;;;;;18.15;6.05;;;;;;;8.11;78.16;102727.22;4843971;29;20042;-77
2023/05/03 07:33:42;;;;;;;20.15;6.63;;;;;;;8.20;79.61;102720.69;4848292;29;20034;-76
2023/05/03 07:36:07;;;;;;;17.50;6.22;;;;;;;8.25;76.02;102710.69;4852592;29;20021;-76
2023/05/03 07:38:33;;;;;;;21.45;6.38;;;;;;;8.32;76.28;102719.41;4841790;29;20418;-76
2023/05/03 07:40:58;;;;;;;16.48;6.03;;;;;;;8.37;76.23;102715.59;4844801;29;20029;-76
2023/05/03 07:43:23;;;;;;;16.20;6.20;;;;;;;8.42;76.43;102707.44;4833549;29;20033;-76
2023/05/03 07:45:49;;;;;;;22.65;6.57;;;;;;;8.46;73.75;102708.22;4849592;29;20040;-76
2023/05/03 07:48:14;;;;;;;16.75;6.13;;;;;;;8.52;75.70;102708.00;4845780;29;20030;-76
2023/05/03 07:50:43;;;;;;;16.35;5.43;;;;;;;8.57;72.66;102708.75;4844254;29;20037;-76
2023/05/03 07:53:10;;;;;;;20.27;6.55;;;;;;;8.66;74.76;102704.84;4843559;29;20033;-76
2023/05/03 07:55:36;;;;;;;16.95;5.55;;;;;;;8.72;73.08;102692.09;4850172;29;20036;-76
2023/05/03 07:58:03;;;;;;;20.38;6.22;;;;;;;8.81;73.72;102695.38;4848796;29;20033;-76
2023/05/03 08:00:28;;;;;;;17.92;5.32;;;;;;;8.85;71.79;102684.50;4849763;29;20052;-76
2023/05/03 08:02:53;;;;;;;18.38;5.50;;;;;;;8.94;71.59;102693.13;4829489;29;20022;-76
2023/05/03 08:05:19;;;;;;;15.68;5.00;;;;;;;8.99;71.70;102681.31;4844717;29;20017;-76
2023/05/03 08:07:44;;;;;;;16.20;4.93;;;;;;;9.07;71.22;102672.97;4844858;29;20060;-76
2023/05/03 08:10:10;;;;;;;16.27;5.18;;;;;;;9.13;70.55;102674.56;4840835;29;20034;-76
2023/05/03 08:12:35;;;;;;;17.67;5.93;;;;;;;9.19;69.36;102660.91;4841438;29;20046;-76
2023/05/03 08:15:01;;;;;;;16.40;5.13;;;;;;;9.23;66.75;102654.50;4834304;29;20042;-76
2023/05/03 08:17:26;;;;;;;16.80;6.10;;;;;;;9.28;70.03;102649.81;4851040;29;20021;-76
2023/05/03 08:19:54;;;;;;;16.13;5.55;;;;;;;9.35;69.95;102658.50;4844817;29;20487;-76
2023/05/03 08:22:19;;;;;;;19.40;5.88;;;;;;;9.38;68.61;102667.28;4844100;29;20549;-76
2023/05/03 08:24:45;;;;;;;18.25;5.57;;;;;;;9.44;68.18;102661.72;4854297;29;20163;-76
2023/05/03 08:27:11;;;;;;;17.08;5.13;;;;;;;9.51;66.01;102672.19;4845254;29;20432;-76
2023/05/03 08:29:37;;;;;;;18.58;5.20;;;;;;;9.55;66.21;102661.28;4848320;29;20034;-76
2023/05/03 08:32:03;;;;;;;19.65;5.50;;;;;;;9.61;63.16;102663.69;4841261;29;20031;-76
2023/05/03 08:34:29;;;;;;;17.95;5.28;;;;;;;9.67;65.14;102651.84;4851519;29;20525;-76
2023/05/03 08:36:55;;;;;;;17.98;5.30;;;;;;;9.72;64.43;102657.03;4847782;29;20065;-76
2023/05/03 08:39:20;;;;;;;13.57;4.40;;;;;;;9.79;66.01;102653.16;4841573;29;20510;-76
2023/05/03 08:41:46;;;;;;;13.82;4.55;;;;;;;9.84;61.80;102653.84;4833345;29;20030;-76
2023/05/03 08:44:19;;;;;;;22.60;5.32;;;;;;;9.89;63.37;102649.16;4839138;29;20060;-76
2023/05/03 08:46:44;;;;;;;15.13;5.25;;;;;;;9.96;63.99;102652.47;4847162;29;20030;-76
2023/05/03 08:49:11;;;;;;;16.85;5.00;;;;;;;9.99;60.74;102657.72;4836470;29;20125;-75
2023/05/03 08:51:40;;;;;;;16.20;5.18;;;;;;;10.04;61.75;102655.69;4833967;29;20044;-76
2023/05/03 08:54:06;;;;;;;17.52;5.53;;;;;;;10.08;60.54;102660.00;4847756;29;20026;-76
2023/05/03 08:56:38;;;;;;;14.98;4.65;;;;;;;10.14;60.10;102667.78;4846830;29;20372;-76
2023/05/03 08:59:07;;;;;;;17.55;5.28;;;;;;;10.18;62.32;102676.63;4849191;29;20037;-76
2023/05/03 09:01:34;;;;;;;21.48;4.93;;;;;;;10.25;63.08;102669.16;4852965;29;20401;-76
2023/05/03 09:04:02;;;;;;;16.65;5.43;;;;;;;10.27;62.58;102665.47;4849197;29;20148;-76
2023/05/03 09:06:27;;;;;;;17.80;5.55;;;;;;;10.33;62.77;102661.63;4851856;29;20141;-76
2023/05/03 09:08:53;;;;;;;17.52;4.85;;;;;;;10.40;61.06;102668.53;4852630;29;20045;-76
2023/05/03 09:11:29;;;;;;;19.88;5.80;;;;;;;10.45;60.36;102660.25;4842652;29;20061;-76
2023/05/03 09:14:14;;;;;;;18.08;5.30;;;;;;;10.51;63.06;102664.50;4833629;29;20121;-76
2023/05/03 09:16:43;;;;;;;15.43;4.82;;;;;;;10.57;59.54;102658.84;4844703;29;20136;-76
2023/05/03 09:19:10;;;;;;;17.50;5.28;;;;;;;10.59;60.42;102659.66;4853009;29;20030;-76
2023/05/03 09:21:36;;;;;;;17.45;5.05;;;;;;;10.64;60.82;102660.31;4852150;29;20120;-76
2023/05/03 09:24:02;;;;;;;16.42;5.68;;;;;;;10.71;61.66;102656.41;4842431;29;20162;-76
2023/05/03 09:26:33;;;;;;;17.85;5.43;;;;;;;10.74;57.81;102658.09;4850070;29;20037;-76
2023/05/03 09:29:00;;;;;;;14.63;4.65;;;;;;;10.79;58.21;102667.72;4847626;29;20153;-76
2023/05/03 09:31:32;;;;;;;16.85;5.18;;;;;;;10.79;58.11;102656.97;4845952;29;20034;-77
2023/05/03 09:33:57;;;;;;;19.75;5.20;;;;;;;10.81;57.89;102665.81;4845424;29;20032;-76
2023/05/03 09:36:23;;;;;;;15.23;4.72;;;;;;;10.89;59.69;102659.22;4839996;29;20395;-78
2023/05/03 09:38:50;;;;;;;17.42;5.22;;;;;;;10.93;59.45;102652.75;4847569;29;20117;-78
2023/05/03 09:41:26;;;;;;;17.08;5.53;;;;;;;11.01;59.92;102656.84;4846080;29;20037;-76
2023/05/03 09:43:54;;;;;;;15.95;5.47;;;;;;;11.13;60.96;102657.22;4845836;29;20049;-76
2023/05/03 09:46:20;;;;;;;17.20;4.72;;;;;;;11.14;56.22;102649.09;4843949;29;20032;-76
2023/05/03 09:48:45;;;;;;;14.32;5.28;;;;;;;11.19;58.32;102657.78;4836750;29;20499;-77
2023/05/03 09:51:11;;;;;;;17.48;4.82;;;;;;;11.16;56.51;102647.19;4851635;29;20071;-76
2023/05/03 09:53:38;;;;;;;15.05;4.72;;;;;;;11.14;56.52;102642.81;4848876;29;20033;-76
2023/05/03 09:56:11;;;;;;;15.48;5.07;;;;;;;11.19;58.47;102641.66;4849399;29;20409;-76
2023/05/03 09:58:38;;;;;;;16.58;5.75;;;;;;;11.18;56.01;102634.50;4827051;29;20034;-75
2023/05/03 10:01:03;;;;;;;14.93;4.75;;;;;;;11.29;57.13;102647.47;4843551;29;20378;-76
2023/05/03 10:03:43;;;;;;;17.98;5.70;;;;;;;11.40;57.36;102646.09;4838596;29;20037;-76
2023/05/03 10:06:25;;;;;;;15.52;5.03;;;;;;;11.40;55.63;102638.88;4829730;29;20054;-75
2023/05/03 10:09:23;;;;;;;17.30;5.78;;;;;;;11.42;56.60;102637.00;4853314;29;20038;-75
2023/05/03 10:11:53;;;;;;;17.40;5.93;;;;;;;11.46;56.79;102633.19;4846434;29;20439;-75
2023/05/03 10:14:21;;;;;;;16.67;5.70;;;;;;;11.51;58.65;102636.53;4845899;29;20034;-76
2023/05/03 10:16:50;;;;;;;19.05;5.40;;;;;;;11.56;55.73;102639.00;4853682;29;20057;-76
2023/05/03 10:19:45;;;;;;;15.15;5.28;;;;;;;11.59;56.83;102633.47;4853453;29;20120;-76
2023/05/03 10:22:10;;;;;;;15.88;5.45;;;;;;;11.65;56.09;102633.16;4850907;29;20510;-76
2023/05/03 10:24:57;;;;;;;17.40;5.20;;;;;;;11.72;54.32;102648.06;4847513;29;20117;-76
2023/05/03 10:27:23;;;;;;;13.70;5.10;;;;;;;11.78;57.50;102641.50;4850672;29;20036;-76
2023/05/03 10:29:50;;;;;;;15.70;5.22;;;;;;;11.82;56.39;102645.81;4853800;29;20482;-76
2023/05/03 10:32:41;;;;;;;19.05;6.63;;;;;;;11.85;57.59;102636.72;4852122;29;20126;-75
2023/05/03 10:35:08;;;;;;;17.88;5.47;;;;;;;11.92;55.65;102634.56;4837760;29;20518;-76
2023/05/03 10:37:35;;;;;;;18.83;5.40;;;;;;;11.95;54.05;102639.81;4849823;29;20046;-76
2023/05/03 10:40:09;;;;;;;15.45;5.18;;;;;;;12.03;56.08;102640.31;4853760;29;20025;-77
2023/05/03 10:42:36;;;;;;;18.75;5.88;;;;;;;12.07;54.90;102633.81;4833477;29;20344;-77
2023/05/03 10:45:02;;;;;;;20.95;6.30;;;;;;;12.14;57.61;102626.28;4826838;29;20041;-77
2023/05/03 10:47:28;;;;;;;18.20;5.18;;;;;;;12.17;56.15;102629.72;4827039;29;20033;-76
2023/05/03 10:50:15;;;;;;;17.73;6.40;;;;;;;12.23;57.26;102637.47;4844659;29;20483;-76
2023/05/03 10:52:40;;;;;;;15.90;5.85;;;;;;;12.28;54.60;102641.75;4841503;29;20117;-76
2023/05/03 10:55:11;;;;;;;18.23;6.03;;;;;;;12.30;55.43;102634.44;4846527;29;20546;-77
2023/05/03 10:57:40;;;;;;;20.45;6.32;;;;;;;12.35;56.95;102648.56;4848711;29;20044;-77
2023/05/03 11:00:11;;;;;;;17.15;5.88;;;;;;;12.33;55.60;102642.38;4847983;29;20391;-77
2023/05/03 11:02:45;;;;;;;17.58;5.72;;;;;;;12.33;54.71;102634.28;4846196;29;20029;-76
2023/05/03 11:05:13;;;;;;;16.23;5.68;;;;;;;12.35;54.75;102632.41;4848373;29;20038;-77
2023/05/03 11:07:39;;;;;;;18.40;5.82;;;;;;;12.37;56.08;102631.38;4840412;29;20033;-77
2023/05/03 11:10:18;;;;;;;19.45;6.75;;;;;;;12.36;54.43;102628.75;4847425;29;20040;-77
2023/05/03 11:12:43;;;;;;;17.23;5.90;;;;;;;12.39;57.42;102605.19;4836825;29;20034;-76
2023/05/03 11:15:11;;;;;;;22.05;6.80;;;;;;;12.46;57.66;102597.66;4843126;29;20490;-77
2023/05/03 11:17:37;;;;;;;16.35;5.70;;;;;;;12.54;57.88;102599.94;4843055;29;20044;-76
2023/05/03 11:20:07;;;;;;;16.15;5.97;;;;;;;12.58;56.25;102610.47;4841138;29;20390;-77
2023/05/03 11:22:32;;;;;;;;;;;;;;;12.61;57.92;102605.84;4848590;29;20026;-77
2023/05/03 11:24:58;;;;;;;16.55;6.47;;;;;;;12.63;55.58;102598.56;4844282;29;19916;-77